sensor_id;sensor_type;location;lat;lon;timestamp;P1;durP1;ratioP1;P2;durP2;ratioP2
8058;SDS011;4072;42.668;23.396;2023-03-31T00:00:50;10.70;;;7.43;;
8058;SDS011;4072;42.668;23.396;2023-03-31T00:03:18;9.87;;;6.73;;
8058;SDS011;4072;42.668;23.396;2023-03-31T00:05:54;10.53;;;7.10;;
8058;SDS011;4072;42.668;23.396;2023-03-31T00:08:28;11.57;;;7.43;;
8058;SDS011;4072;42.668;23.396;2023-03-31T00:11:01;11.07;;;6.63;;
8058;SDS011;4072;42.668;23.396;2023-03-31T00:13:31;10.77;;;6.60;;
8058;SDS011;4072;42.668;23.396;2023-03-31T00:15:59;11.37;;;8.00;;
8058;SDS011;4072;42.668;23.396;2023-03-31T00:18:28;7.33;;;5.77;;
8058;SDS011;4072;42.668;23.396;2023-03-31T00:20:59;9.47;;;6.43;;
8058;SDS011;4072;42.668;23.396;2023-03-31T00:23:32;8.63;;;5.97;;
8058;SDS011;4072;42.668;23.396;2023-03-31T00:26:00;10.97;;;6.57;;
8058;SDS011;4072;42.668;23.396;2023-03-31T00:28:28;7.63;;;5.60;;
8058;SDS011;4072;42.668;23.396;2023-03-31T00:31:00;10.30;;;6.20;;
8058;SDS011;4072;42.668;23.396;2023-03-31T00:33:29;10.47;;;6.10;;
8058;SDS011;4072;42.668;23.396;2023-03-31T00:35:56;11.10;;;6.33;;
8058;SDS011;4072;42.668;23.396;2023-03-31T00:38:32;10.87;;;6.83;;
8058;SDS011;4072;42.668;23.396;2023-03-31T00:41:00;11.70;;;8.10;;
8058;SDS011;4072;42.668;23.396;2023-03-31T00:43:29;8.50;;;6.20;;
8058;SDS011;4072;42.668;23.396;2023-03-31T00:46:08;12.00;;;8.53;;
8058;SDS011;4072;42.668;23.396;2023-03-31T00:48:41;9.43;;;6.10;;
8058;SDS011;4072;42.668;23.396;2023-03-31T00:51:12;11.33;;;6.30;;
8058;SDS011;4072;42.668;23.396;2023-03-31T00:53:41;11.40;;;6.50;;
8058;SDS011;4072;42.668;23.396;2023-03-31T00:56:10;10.77;;;8.20;;
8058;SDS011;4072;42.668;23.396;2023-03-31T00:58:39;10.97;;;6.67;;
8058;SDS011;4072;42.668;23.396;2023-03-31T01:01:12;8.93;;;5.93;;
8058;SDS011;4072;42.668;23.396;2023-03-31T01:03:41;9.87;;;6.50;;
8058;SDS011;4072;42.668;23.396;2023-03-31T01:06:12;14.57;;;6.73;;
8058;SDS011;4072;42.668;23.396;2023-03-31T01:08:45;10.30;;;6.47;;
8058;SDS011;4072;42.668;23.396;2023-03-31T01:11:15;13.50;;;7.30;;
8058;SDS011;4072;42.668;23.396;2023-03-31T01:13:43;10.97;;;7.97;;
8058;SDS011;4072;42.668;23.396;2023-03-31T01:16:17;9.93;;;7.13;;
8058;SDS011;4072;42.668;23.396;2023-03-31T01:18:45;12.27;;;7.07;;
8058;SDS011;4072;42.668;23.396;2023-03-31T01:24:13;10.07;;;6.53;;
8058;SDS011;4072;42.668;23.396;2023-03-31T01:26:55;10.37;;;7.00;;
8058;SDS011;4072;42.668;23.396;2023-03-31T01:29:38;8.83;;;7.47;;
8058;SDS011;4072;42.668;23.396;2023-03-31T01:32:26;13.30;;;8.60;;
8058;SDS011;4072;42.668;23.396;2023-03-31T01:40:47;12.97;;;9.60;;
8058;SDS011;4072;42.668;23.396;2023-03-31T01:43:20;15.10;;;8.63;;
8058;SDS011;4072;42.668;23.396;2023-03-31T01:45:52;12.63;;;9.87;;
8058;SDS011;4072;42.668;23.396;2023-03-31T01:48:25;14.73;;;8.73;;
8058;SDS011;4072;42.668;23.396;2023-03-31T01:51:00;14.40;;;10.20;;
8058;SDS011;4072;42.668;23.396;2023-03-31T01:53:29;15.97;;;10.03;;
8058;SDS011;4072;42.668;23.396;2023-03-31T01:56:01;18.20;;;9.70;;
8058;SDS011;4072;42.668;23.396;2023-03-31T01:58:31;15.33;;;8.40;;
8058;SDS011;4072;42.668;23.396;2023-03-31T02:01:04;12.90;;;7.97;;
8058;SDS011;4072;42.668;23.396;2023-03-31T02:03:35;18.73;;;12.43;;
8058;SDS011;4072;42.668;23.396;2023-03-31T02:06:05;15.20;;;10.23;;
8058;SDS011;4072;42.668;23.396;2023-03-31T02:08:35;15.53;;;9.10;;
8058;SDS011;4072;42.668;23.396;2023-03-31T02:11:05;14.70;;;9.80;;
8058;SDS011;4072;42.668;23.396;2023-03-31T02:13:34;12.57;;;9.67;;
8058;SDS011;4072;42.668;23.396;2023-03-31T02:16:08;12.10;;;9.30;;
8058;SDS011;4072;42.668;23.396;2023-03-31T02:18:38;10.67;;;8.67;;
8058;SDS011;4072;42.668;23.396;2023-03-31T02:21:07;14.07;;;9.63;;
8058;SDS011;4072;42.668;23.396;2023-03-31T02:23:37;15.70;;;9.20;;
8058;SDS011;4072;42.668;23.396;2023-03-31T02:26:08;12.27;;;8.63;;
8058;SDS011;4072;42.668;23.396;2023-03-31T02:28:36;11.10;;;7.13;;
8058;SDS011;4072;42.668;23.396;2023-03-31T02:31:06;14.60;;;7.70;;
8058;SDS011;4072;42.668;23.396;2023-03-31T02:33:36;9.70;;;6.87;;
8058;SDS011;4072;42.668;23.396;2023-03-31T02:36:04;12.70;;;8.60;;
8058;SDS011;4072;42.668;23.396;2023-03-31T02:38:35;11.33;;;7.33;;
8058;SDS011;4072;42.668;23.396;2023-03-31T02:41:03;13.03;;;8.13;;
8058;SDS011;4072;42.668;23.396;2023-03-31T02:43:34;11.17;;;7.53;;
8058;SDS011;4072;42.668;23.396;2023-03-31T02:46:02;12.20;;;7.73;;
8058;SDS011;4072;42.668;23.396;2023-03-31T02:48:31;12.60;;;8.73;;
8058;SDS011;4072;42.668;23.396;2023-03-31T02:51:09;10.90;;;7.67;;
8058;SDS011;4072;42.668;23.396;2023-03-31T02:53:47;14.33;;;7.00;;
8058;SDS011;4072;42.668;23.396;2023-03-31T02:56:24;11.83;;;8.33;;
8058;SDS011;4072;42.668;23.396;2023-03-31T02:59:02;8.80;;;7.37;;
8058;SDS011;4072;42.668;23.396;2023-03-31T03:01:40;13.50;;;8.17;;
8058;SDS011;4072;42.668;23.396;2023-03-31T03:04:15;15.50;;;7.80;;
8058;SDS011;4072;42.668;23.396;2023-03-31T03:06:52;13.53;;;9.00;;
8058;SDS011;4072;42.668;23.396;2023-03-31T03:09:26;11.43;;;8.17;;
8058;SDS011;4072;42.668;23.396;2023-03-31T03:11:58;11.77;;;7.07;;
8058;SDS011;4072;42.668;23.396;2023-03-31T03:14:32;10.23;;;7.13;;
8058;SDS011;4072;42.668;23.396;2023-03-31T03:17:03;11.20;;;7.30;;
8058;SDS011;4072;42.668;23.396;2023-03-31T03:19:32;12.60;;;7.97;;
8058;SDS011;4072;42.668;23.396;2023-03-31T03:22:00;10.03;;;8.07;;
8058;SDS011;4072;42.668;23.396;2023-03-31T03:24:28;10.10;;;7.30;;
8058;SDS011;4072;42.668;23.396;2023-03-31T03:26:59;12.13;;;7.47;;
8058;SDS011;4072;42.668;23.396;2023-03-31T03:29:28;14.23;;;7.53;;
8058;SDS011;4072;42.668;23.396;2023-03-31T03:31:57;10.67;;;7.00;;
8058;SDS011;4072;42.668;23.396;2023-03-31T03:34:25;8.70;;;6.10;;
8058;SDS011;4072;42.668;23.396;2023-03-31T03:36:53;9.33;;;6.93;;
8058;SDS011;4072;42.668;23.396;2023-03-31T03:39:21;11.30;;;7.27;;
8058;SDS011;4072;42.668;23.396;2023-03-31T03:41:49;9.77;;;7.43;;
8058;SDS011;4072;42.668;23.396;2023-03-31T03:44:19;8.97;;;6.50;;
8058;SDS011;4072;42.668;23.396;2023-03-31T03:46:47;9.77;;;7.23;;
8058;SDS011;4072;42.668;23.396;2023-03-31T03:49:16;11.43;;;8.27;;
8058;SDS011;4072;42.668;23.396;2023-03-31T03:51:44;9.37;;;8.13;;
8058;SDS011;4072;42.668;23.396;2023-03-31T03:54:12;13.93;;;8.47;;
8058;SDS011;4072;42.668;23.396;2023-03-31T03:56:39;8.53;;;5.67;;
8058;SDS011;4072;42.668;23.396;2023-03-31T03:59:07;7.83;;;5.33;;
8058;SDS011;4072;42.668;23.396;2023-03-31T04:01:35;6.43;;;5.10;;
8058;SDS011;4072;42.668;23.396;2023-03-31T04:04:03;10.60;;;5.93;;
8058;SDS011;4072;42.668;23.396;2023-03-31T04:06:33;5.90;;;4.53;;
8058;SDS011;4072;42.668;23.396;2023-03-31T04:09:01;8.33;;;4.80;;
8058;SDS011;4072;42.668;23.396;2023-03-31T04:11:29;8.83;;;5.67;;
8058;SDS011;4072;42.668;23.396;2023-03-31T04:13:58;9.63;;;6.57;;
8058;SDS011;4072;42.668;23.396;2023-03-31T04:16:25;8.23;;;5.33;;
8058;SDS011;4072;42.668;23.396;2023-03-31T04:18:53;9.53;;;5.93;;
8058;SDS011;4072;42.668;23.396;2023-03-31T04:21:24;9.63;;;5.63;;
8058;SDS011;4072;42.668;23.396;2023-03-31T04:23:54;7.93;;;5.47;;
8058;SDS011;4072;42.668;23.396;2023-03-31T04:26:28;7.37;;;5.00;;
8058;SDS011;4072;42.668;23.396;2023-03-31T04:29:09;7.67;;;6.03;;
8058;SDS011;4072;42.668;23.396;2023-03-31T04:31:38;8.53;;;6.23;;
8058;SDS011;4072;42.668;23.396;2023-03-31T04:34:10;4.17;;;3.67;;
8058;SDS011;4072;42.668;23.396;2023-03-31T04:36:39;4.93;;;3.60;;
8058;SDS011;4072;42.668;23.396;2023-03-31T04:39:15;6.07;;;3.43;;
8058;SDS011;4072;42.668;23.396;2023-03-31T04:41:43;6.00;;;3.40;;
8058;SDS011;4072;42.668;23.396;2023-03-31T04:44:11;6.27;;;5.30;;
8058;SDS011;4072;42.668;23.396;2023-03-31T04:46:39;7.17;;;5.30;;
8058;SDS011;4072;42.668;23.396;2023-03-31T04:49:07;8.07;;;5.83;;
8058;SDS011;4072;42.668;23.396;2023-03-31T04:51:34;10.10;;;6.30;;
8058;SDS011;4072;42.668;23.396;2023-03-31T04:54:02;7.63;;;6.17;;
8058;SDS011;4072;42.668;23.396;2023-03-31T04:56:32;10.73;;;6.10;;
8058;SDS011;4072;42.668;23.396;2023-03-31T04:58:59;8.80;;;5.33;;
8058;SDS011;4072;42.668;23.396;2023-03-31T05:01:29;9.67;;;6.80;;
8058;SDS011;4072;42.668;23.396;2023-03-31T05:03:58;10.10;;;5.70;;
8058;SDS011;4072;42.668;23.396;2023-03-31T05:06:26;3.50;;;2.97;;
8058;SDS011;4072;42.668;23.396;2023-03-31T05:08:54;7.23;;;4.40;;
8058;SDS011;4072;42.668;23.396;2023-03-31T05:11:22;10.80;;;7.17;;
8058;SDS011;4072;42.668;23.396;2023-03-31T05:13:51;23.73;;;19.00;;
8058;SDS011;4072;42.668;23.396;2023-03-31T05:16:20;15.77;;;11.23;;
8058;SDS011;4072;42.668;23.396;2023-03-31T05:18:48;11.77;;;8.63;;
8058;SDS011;4072;42.668;23.396;2023-03-31T05:21:17;10.43;;;6.37;;
8058;SDS011;4072;42.668;23.396;2023-03-31T05:23:46;13.30;;;6.63;;
8058;SDS011;4072;42.668;23.396;2023-03-31T05:26:13;9.27;;;7.47;;
8058;SDS011;4072;42.668;23.396;2023-03-31T05:28:41;11.87;;;7.30;;
8058;SDS011;4072;42.668;23.396;2023-03-31T05:31:11;13.10;;;6.83;;
8058;SDS011;4072;42.668;23.396;2023-03-31T05:33:40;9.87;;;6.90;;
8058;SDS011;4072;42.668;23.396;2023-03-31T05:36:08;9.93;;;7.00;;
8058;SDS011;4072;42.668;23.396;2023-03-31T05:38:37;11.23;;;7.87;;
8058;SDS011;4072;42.668;23.396;2023-03-31T05:41:05;14.40;;;8.33;;
8058;SDS011;4072;42.668;23.396;2023-03-31T05:43:35;10.93;;;6.30;;
8058;SDS011;4072;42.668;23.396;2023-03-31T05:46:03;9.23;;;5.83;;
8058;SDS011;4072;42.668;23.396;2023-03-31T05:48:33;15.37;;;9.60;;
8058;SDS011;4072;42.668;23.396;2023-03-31T05:51:03;8.03;;;6.50;;
8058;SDS011;4072;42.668;23.396;2023-03-31T05:53:31;13.80;;;7.10;;
8058;SDS011;4072;42.668;23.396;2023-03-31T05:56:00;10.93;;;7.17;;
8058;SDS011;4072;42.668;23.396;2023-03-31T05:58:28;6.17;;;4.13;;
8058;SDS011;4072;42.668;23.396;2023-03-31T06:01:00;6.23;;;4.43;;
8058;SDS011;4072;42.668;23.396;2023-03-31T06:03:35;6.93;;;4.13;;
8058;SDS011;4072;42.668;23.396;2023-03-31T06:06:03;5.43;;;3.40;;
8058;SDS011;4072;42.668;23.396;2023-03-31T06:08:33;3.30;;;2.30;;
8058;SDS011;4072;42.668;23.396;2023-03-31T06:11:03;4.87;;;4.10;;
8058;SDS011;4072;42.668;23.396;2023-03-31T06:13:33;5.10;;;4.03;;
8058;SDS011;4072;42.668;23.396;2023-03-31T06:16:01;5.33;;;4.00;;
8058;SDS011;4072;42.668;23.396;2023-03-31T06:18:30;5.80;;;3.83;;
8058;SDS011;4072;42.668;23.396;2023-03-31T06:20:59;4.80;;;3.77;;
8058;SDS011;4072;42.668;23.396;2023-03-31T06:23:27;5.33;;;4.20;;
8058;SDS011;4072;42.668;23.396;2023-03-31T06:25:57;5.83;;;4.43;;
8058;SDS011;4072;42.668;23.396;2023-03-31T06:28:26;7.70;;;4.77;;
8058;SDS011;4072;42.668;23.396;2023-03-31T06:31:01;5.00;;;4.10;;
8058;SDS011;4072;42.668;23.396;2023-03-31T06:33:31;5.03;;;3.63;;
8058;SDS011;4072;42.668;23.396;2023-03-31T06:36:01;7.03;;;4.30;;
8058;SDS011;4072;42.668;23.396;2023-03-31T06:38:31;7.00;;;4.60;;
8058;SDS011;4072;42.668;23.396;2023-03-31T06:40:59;7.20;;;4.67;;
8058;SDS011;4072;42.668;23.396;2023-03-31T06:43:27;4.17;;;3.23;;
8058;SDS011;4072;42.668;23.396;2023-03-31T06:45:55;3.17;;;2.87;;
8058;SDS011;4072;42.668;23.396;2023-03-31T06:48:23;10.53;;;7.13;;
8058;SDS011;4072;42.668;23.396;2023-03-31T06:50:52;9.10;;;5.53;;
8058;SDS011;4072;42.668;23.396;2023-03-31T06:53:21;9.43;;;5.50;;
8058;SDS011;4072;42.668;23.396;2023-03-31T06:55:49;7.60;;;5.40;;
8058;SDS011;4072;42.668;23.396;2023-03-31T06:58:17;6.23;;;4.10;;
8058;SDS011;4072;42.668;23.396;2023-03-31T07:00:44;7.97;;;4.77;;
8058;SDS011;4072;42.668;23.396;2023-03-31T07:03:12;7.47;;;5.37;;
8058;SDS011;4072;42.668;23.396;2023-03-31T07:05:46;10.53;;;6.67;;
8058;SDS011;4072;42.668;23.396;2023-03-31T07:08:17;9.17;;;6.27;;
8058;SDS011;4072;42.668;23.396;2023-03-31T07:10:46;10.20;;;6.33;;
8058;SDS011;4072;42.668;23.396;2023-03-31T07:13:15;8.60;;;5.80;;
8058;SDS011;4072;42.668;23.396;2023-03-31T07:15:46;13.37;;;6.10;;
8058;SDS011;4072;42.668;23.396;2023-03-31T07:18:14;10.87;;;6.27;;
8058;SDS011;4072;42.668;23.396;2023-03-31T07:20:41;10.47;;;6.63;;
8058;SDS011;4072;42.668;23.396;2023-03-31T07:23:09;9.63;;;5.90;;
8058;SDS011;4072;42.668;23.396;2023-03-31T07:25:38;9.47;;;5.53;;
8058;SDS011;4072;42.668;23.396;2023-03-31T07:28:07;9.10;;;4.90;;
8058;SDS011;4072;42.668;23.396;2023-03-31T07:30:35;11.43;;;5.30;;
8058;SDS011;4072;42.668;23.396;2023-03-31T07:33:04;10.70;;;4.87;;
8058;SDS011;4072;42.668;23.396;2023-03-31T07:35:32;6.63;;;5.47;;
8058;SDS011;4072;42.668;23.396;2023-03-31T07:38:00;7.63;;;5.00;;
8058;SDS011;4072;42.668;23.396;2023-03-31T07:40:28;6.83;;;4.93;;
8058;SDS011;4072;42.668;23.396;2023-03-31T07:42:56;6.27;;;5.23;;
8058;SDS011;4072;42.668;23.396;2023-03-31T07:45:26;12.07;;;6.77;;
8058;SDS011;4072;42.668;23.396;2023-03-31T07:47:53;9.03;;;5.10;;
8058;SDS011;4072;42.668;23.396;2023-03-31T07:50:21;8.63;;;5.53;;
8058;SDS011;4072;42.668;23.396;2023-03-31T07:52:50;6.73;;;5.20;;
8058;SDS011;4072;42.668;23.396;2023-03-31T07:55:18;7.93;;;5.33;;
8058;SDS011;4072;42.668;23.396;2023-03-31T07:57:46;10.23;;;5.47;;
8058;SDS011;4072;42.668;23.396;2023-03-31T08:00:14;6.33;;;4.50;;
8058;SDS011;4072;42.668;23.396;2023-03-31T08:02:44;4.73;;;3.57;;
8058;SDS011;4072;42.668;23.396;2023-03-31T08:05:15;4.90;;;3.87;;
8058;SDS011;4072;42.668;23.396;2023-03-31T08:07:44;7.17;;;4.37;;
8058;SDS011;4072;42.668;23.396;2023-03-31T08:10:13;6.43;;;3.60;;
8058;SDS011;4072;42.668;23.396;2023-03-31T08:12:49;5.17;;;4.00;;
8058;SDS011;4072;42.668;23.396;2023-03-31T08:15:19;4.43;;;3.30;;
8058;SDS011;4072;42.668;23.396;2023-03-31T08:17:50;4.27;;;3.80;;
8058;SDS011;4072;42.668;23.396;2023-03-31T08:20:18;5.77;;;4.43;;
8058;SDS011;4072;42.668;23.396;2023-03-31T08:22:46;8.13;;;5.17;;
8058;SDS011;4072;42.668;23.396;2023-03-31T08:25:13;5.33;;;3.47;;
8058;SDS011;4072;42.668;23.396;2023-03-31T08:27:41;4.53;;;3.47;;
8058;SDS011;4072;42.668;23.396;2023-03-31T08:30:09;3.17;;;2.73;;
8058;SDS011;4072;42.668;23.396;2023-03-31T08:32:38;5.97;;;3.73;;
8058;SDS011;4072;42.668;23.396;2023-03-31T08:35:10;9.63;;;4.07;;
8058;SDS011;4072;42.668;23.396;2023-03-31T08:37:37;5.53;;;2.63;;
8058;SDS011;4072;42.668;23.396;2023-03-31T08:40:06;3.37;;;1.93;;
8058;SDS011;4072;42.668;23.396;2023-03-31T08:42:35;5.17;;;3.00;;
8058;SDS011;4072;42.668;23.396;2023-03-31T08:45:05;4.17;;;2.87;;
8058;SDS011;4072;42.668;23.396;2023-03-31T08:47:36;5.23;;;2.63;;
8058;SDS011;4072;42.668;23.396;2023-03-31T08:50:06;3.80;;;2.50;;
8058;SDS011;4072;42.668;23.396;2023-03-31T08:52:36;5.03;;;3.33;;
8058;SDS011;4072;42.668;23.396;2023-03-31T08:55:06;6.27;;;2.73;;
8058;SDS011;4072;42.668;23.396;2023-03-31T08:57:36;6.67;;;3.77;;
8058;SDS011;4072;42.668;23.396;2023-03-31T09:00:09;4.70;;;1.90;;
8058;SDS011;4072;42.668;23.396;2023-03-31T09:02:41;5.17;;;2.50;;
8058;SDS011;4072;42.668;23.396;2023-03-31T09:05:22;4.37;;;2.30;;
8058;SDS011;4072;42.668;23.396;2023-03-31T09:07:57;6.73;;;3.17;;
8058;SDS011;4072;42.668;23.396;2023-03-31T09:13:17;10.13;;;3.53;;
8058;SDS011;4072;42.668;23.396;2023-03-31T09:15:49;9.33;;;3.27;;
8058;SDS011;4072;42.668;23.396;2023-03-31T09:18:24;5.17;;;2.80;;
8058;SDS011;4072;42.668;23.396;2023-03-31T09:20:54;6.43;;;4.23;;
8058;SDS011;4072;42.668;23.396;2023-03-31T09:23:26;11.30;;;4.97;;
8058;SDS011;4072;42.668;23.396;2023-03-31T09:25:54;15.80;;;8.23;;
8058;SDS011;4072;42.668;23.396;2023-03-31T09:28:25;8.20;;;5.47;;
8058;SDS011;4072;42.668;23.396;2023-03-31T09:30:55;3.33;;;2.30;;
8058;SDS011;4072;42.668;23.396;2023-03-31T09:33:24;5.77;;;2.40;;
8058;SDS011;4072;42.668;23.396;2023-03-31T09:35:53;11.87;;;7.40;;
8058;SDS011;4072;42.668;23.396;2023-03-31T09:38:21;5.53;;;3.77;;
8058;SDS011;4072;42.668;23.396;2023-03-31T09:40:50;4.03;;;1.97;;
8058;SDS011;4072;42.668;23.396;2023-03-31T09:43:20;9.37;;;6.50;;
8058;SDS011;4072;42.668;23.396;2023-03-31T09:45:49;5.50;;;2.43;;
8058;SDS011;4072;42.668;23.396;2023-03-31T09:48:34;5.50;;;2.80;;
8058;SDS011;4072;42.668;23.396;2023-03-31T09:51:03;5.93;;;3.50;;
8058;SDS011;4072;42.668;23.396;2023-03-31T09:53:33;7.53;;;3.27;;
8058;SDS011;4072;42.668;23.396;2023-03-31T09:56:07;9.17;;;3.07;;
8058;SDS011;4072;42.668;23.396;2023-03-31T09:58:39;2.90;;;2.13;;
8058;SDS011;4072;42.668;23.396;2023-03-31T10:01:07;14.23;;;6.43;;
8058;SDS011;4072;42.668;23.396;2023-03-31T10:03:40;5.03;;;3.13;;
8058;SDS011;4072;42.668;23.396;2023-03-31T10:06:13;4.60;;;3.17;;
8058;SDS011;4072;42.668;23.396;2023-03-31T10:08:41;5.30;;;1.90;;
8058;SDS011;4072;42.668;23.396;2023-03-31T10:11:11;7.00;;;1.60;;
8058;SDS011;4072;42.668;23.396;2023-03-31T10:13:41;6.87;;;2.07;;
8058;SDS011;4072;42.668;23.396;2023-03-31T10:16:11;5.07;;;3.57;;
8058;SDS011;4072;42.668;23.396;2023-03-31T10:18:40;6.67;;;4.17;;
8058;SDS011;4072;42.668;23.396;2023-03-31T10:21:14;6.20;;;1.90;;
8058;SDS011;4072;42.668;23.396;2023-03-31T10:23:45;5.17;;;3.20;;
8058;SDS011;4072;42.668;23.396;2023-03-31T10:26:16;3.67;;;1.63;;
8058;SDS011;4072;42.668;23.396;2023-03-31T10:28:44;4.63;;;1.73;;
8058;SDS011;4072;42.668;23.396;2023-03-31T10:31:15;10.20;;;4.87;;
8058;SDS011;4072;42.668;23.396;2023-03-31T10:33:43;4.07;;;2.80;;
8058;SDS011;4072;42.668;23.396;2023-03-31T10:36:15;5.47;;;3.70;;
8058;SDS011;4072;42.668;23.396;2023-03-31T10:38:46;6.53;;;2.30;;
8058;SDS011;4072;42.668;23.396;2023-03-31T10:41:18;3.77;;;2.67;;
8058;SDS011;4072;42.668;23.396;2023-03-31T10:43:47;7.77;;;3.63;;
8058;SDS011;4072;42.668;23.396;2023-03-31T10:46:16;11.07;;;5.47;;
8058;SDS011;4072;42.668;23.396;2023-03-31T10:48:44;5.97;;;4.30;;
8058;SDS011;4072;42.668;23.396;2023-03-31T10:51:14;4.40;;;2.83;;
8058;SDS011;4072;42.668;23.396;2023-03-31T10:53:43;4.90;;;3.30;;
8058;SDS011;4072;42.668;23.396;2023-03-31T10:56:14;3.30;;;2.07;;
8058;SDS011;4072;42.668;23.396;2023-03-31T10:58:50;4.37;;;2.03;;
8058;SDS011;4072;42.668;23.396;2023-03-31T11:01:33;4.30;;;2.80;;
8058;SDS011;4072;42.668;23.396;2023-03-31T11:04:09;2.70;;;1.80;;
8058;SDS011;4072;42.668;23.396;2023-03-31T11:06:48;3.70;;;1.90;;
8058;SDS011;4072;42.668;23.396;2023-03-31T11:09:19;4.67;;;2.00;;
8058;SDS011;4072;42.668;23.396;2023-03-31T11:11:56;2.60;;;1.97;;
8058;SDS011;4072;42.668;23.396;2023-03-31T11:14:30;1.47;;;1.20;;
8058;SDS011;4072;42.668;23.396;2023-03-31T11:17:03;2.87;;;1.63;;
8058;SDS011;4072;42.668;23.396;2023-03-31T11:19:38;1.67;;;1.43;;
8058;SDS011;4072;42.668;23.396;2023-03-31T11:22:10;3.70;;;1.93;;
8058;SDS011;4072;42.668;23.396;2023-03-31T11:24:44;3.27;;;1.60;;
8058;SDS011;4072;42.668;23.396;2023-03-31T11:27:21;3.73;;;2.10;;
8058;SDS011;4072;42.668;23.396;2023-03-31T11:29:55;3.27;;;1.70;;
8058;SDS011;4072;42.668;23.396;2023-03-31T11:32:30;4.30;;;1.97;;
8058;SDS011;4072;42.668;23.396;2023-03-31T11:35:02;3.07;;;2.00;;
8058;SDS011;4072;42.668;23.396;2023-03-31T11:37:36;6.90;;;2.23;;
8058;SDS011;4072;42.668;23.396;2023-03-31T11:40:16;1.47;;;1.27;;
8058;SDS011;4072;42.668;23.396;2023-03-31T11:42:48;3.83;;;2.10;;
8058;SDS011;4072;42.668;23.396;2023-03-31T11:45:19;2.23;;;2.03;;
8058;SDS011;4072;42.668;23.396;2023-03-31T11:47:48;4.30;;;2.00;;
8058;SDS011;4072;42.668;23.396;2023-03-31T11:50:18;3.37;;;1.73;;
8058;SDS011;4072;42.668;23.396;2023-03-31T11:52:49;4.57;;;2.00;;
8058;SDS011;4072;42.668;23.396;2023-03-31T11:55:20;3.27;;;1.40;;
8058;SDS011;4072;42.668;23.396;2023-03-31T11:57:51;4.90;;;2.03;;
8058;SDS011;4072;42.668;23.396;2023-03-31T12:00:21;3.00;;;1.77;;
8058;SDS011;4072;42.668;23.396;2023-03-31T12:02:51;4.27;;;1.83;;
8058;SDS011;4072;42.668;23.396;2023-03-31T12:05:21;5.03;;;2.10;;
8058;SDS011;4072;42.668;23.396;2023-03-31T12:07:53;2.80;;;1.67;;
8058;SDS011;4072;42.668;23.396;2023-03-31T12:10:28;2.27;;;1.83;;
8058;SDS011;4072;42.668;23.396;2023-03-31T12:12:58;4.43;;;2.63;;
8058;SDS011;4072;42.668;23.396;2023-03-31T12:15:32;5.37;;;1.83;;
8058;SDS011;4072;42.668;23.396;2023-03-31T12:18:02;3.20;;;1.60;;
8058;SDS011;4072;42.668;23.396;2023-03-31T12:20:36;5.00;;;2.13;;
8058;SDS011;4072;42.668;23.396;2023-03-31T12:23:09;3.33;;;2.30;;
8058;SDS011;4072;42.668;23.396;2023-03-31T12:25:41;3.13;;;2.07;;
8058;SDS011;4072;42.668;23.396;2023-03-31T12:28:11;3.53;;;1.87;;
8058;SDS011;4072;42.668;23.396;2023-03-31T12:30:41;2.73;;;1.53;;
8058;SDS011;4072;42.668;23.396;2023-03-31T12:33:12;2.67;;;1.60;;
8058;SDS011;4072;42.668;23.396;2023-03-31T12:35:44;4.43;;;1.77;;
8058;SDS011;4072;42.668;23.396;2023-03-31T12:38:21;3.63;;;2.10;;
8058;SDS011;4072;42.668;23.396;2023-03-31T12:40:55;4.27;;;1.67;;
8058;SDS011;4072;42.668;23.396;2023-03-31T12:43:30;2.37;;;1.37;;
8058;SDS011;4072;42.668;23.396;2023-03-31T12:46:06;8.40;;;2.10;;
8058;SDS011;4072;42.668;23.396;2023-03-31T12:51:30;5.17;;;1.77;;
8058;SDS011;4072;42.668;23.396;2023-03-31T12:54:07;3.23;;;2.10;;
8058;SDS011;4072;42.668;23.396;2023-03-31T12:59:27;4.03;;;1.87;;
8058;SDS011;4072;42.668;23.396;2023-03-31T13:02:16;4.97;;;2.37;;
8058;SDS011;4072;42.668;23.396;2023-03-31T13:04:46;5.70;;;2.40;;
8058;SDS011;4072;42.668;23.396;2023-03-31T13:09:58;4.10;;;1.47;;
8058;SDS011;4072;42.668;23.396;2023-03-31T13:12:26;5.97;;;1.70;;
8058;SDS011;4072;42.668;23.396;2023-03-31T13:14:58;2.80;;;1.57;;
8058;SDS011;4072;42.668;23.396;2023-03-31T13:17:32;2.30;;;1.40;;
8058;SDS011;4072;42.668;23.396;2023-03-31T13:20:15;6.73;;;1.87;;
8058;SDS011;4072;42.668;23.396;2023-03-31T13:22:46;2.60;;;1.50;;
8058;SDS011;4072;42.668;23.396;2023-03-31T13:28:17;5.23;;;2.37;;
8058;SDS011;4072;42.668;23.396;2023-03-31T13:30:48;3.93;;;2.03;;
8058;SDS011;4072;42.668;23.396;2023-03-31T13:33:20;8.20;;;2.30;;
8058;SDS011;4072;42.668;23.396;2023-03-31T13:35:49;3.67;;;1.87;;
8058;SDS011;4072;42.668;23.396;2023-03-31T13:38:22;4.97;;;1.90;;
8058;SDS011;4072;42.668;23.396;2023-03-31T13:40:58;9.50;;;3.57;;
8058;SDS011;4072;42.668;23.396;2023-03-31T13:49:14;3.63;;;1.77;;
8058;SDS011;4072;42.668;23.396;2023-03-31T13:51:50;3.07;;;1.80;;
8058;SDS011;4072;42.668;23.396;2023-03-31T14:00:17;3.03;;;1.90;;
8058;SDS011;4072;42.668;23.396;2023-03-31T14:02:50;4.13;;;1.63;;
8058;SDS011;4072;42.668;23.396;2023-03-31T14:05:31;2.67;;;1.70;;
8058;SDS011;4072;42.668;23.396;2023-03-31T14:08:01;5.50;;;1.93;;
8058;SDS011;4072;42.668;23.396;2023-03-31T14:10:31;4.00;;;1.80;;
8058;SDS011;4072;42.668;23.396;2023-03-31T14:13:06;4.97;;;1.47;;
8058;SDS011;4072;42.668;23.396;2023-03-31T14:15:34;3.73;;;2.37;;
8058;SDS011;4072;42.668;23.396;2023-03-31T14:18:03;4.27;;;1.73;;
8058;SDS011;4072;42.668;23.396;2023-03-31T14:20:35;3.93;;;3.13;;
8058;SDS011;4072;42.668;23.396;2023-03-31T14:23:09;5.13;;;2.60;;
8058;SDS011;4072;42.668;23.396;2023-03-31T14:25:43;5.00;;;2.40;;
8058;SDS011;4072;42.668;23.396;2023-03-31T14:28:16;5.87;;;2.70;;
8058;SDS011;4072;42.668;23.396;2023-03-31T14:30:47;5.43;;;2.90;;
8058;SDS011;4072;42.668;23.396;2023-03-31T14:33:22;3.77;;;2.33;;
8058;SDS011;4072;42.668;23.396;2023-03-31T14:35:58;5.13;;;2.57;;
8058;SDS011;4072;42.668;23.396;2023-03-31T14:38:28;4.50;;;2.77;;
8058;SDS011;4072;42.668;23.396;2023-03-31T14:40:56;4.63;;;1.83;;
8058;SDS011;4072;42.668;23.396;2023-03-31T14:43:27;8.53;;;2.17;;
8058;SDS011;4072;42.668;23.396;2023-03-31T14:45:59;3.67;;;1.77;;
8058;SDS011;4072;42.668;23.396;2023-03-31T14:48:27;3.03;;;1.90;;
8058;SDS011;4072;42.668;23.396;2023-03-31T14:50:57;3.07;;;1.70;;
8058;SDS011;4072;42.668;23.396;2023-03-31T14:53:28;2.77;;;1.87;;
8058;SDS011;4072;42.668;23.396;2023-03-31T14:55:58;4.57;;;2.10;;
8058;SDS011;4072;42.668;23.396;2023-03-31T14:58:28;5.03;;;1.90;;
8058;SDS011;4072;42.668;23.396;2023-03-31T15:00:57;5.50;;;1.80;;
8058;SDS011;4072;42.668;23.396;2023-03-31T15:03:25;5.90;;;2.17;;
8058;SDS011;4072;42.668;23.396;2023-03-31T15:05:55;3.50;;;1.93;;
8058;SDS011;4072;42.668;23.396;2023-03-31T15:08:24;2.77;;;1.50;;
8058;SDS011;4072;42.668;23.396;2023-03-31T15:10:55;2.80;;;1.80;;
8058;SDS011;4072;42.668;23.396;2023-03-31T15:13:39;3.03;;;1.43;;
8058;SDS011;4072;42.668;23.396;2023-03-31T15:16:18;5.27;;;1.80;;
8058;SDS011;4072;42.668;23.396;2023-03-31T15:18:47;4.67;;;1.67;;
8058;SDS011;4072;42.668;23.396;2023-03-31T15:21:18;4.33;;;1.93;;
8058;SDS011;4072;42.668;23.396;2023-03-31T15:23:48;4.57;;;1.87;;
8058;SDS011;4072;42.668;23.396;2023-03-31T15:26:17;5.20;;;2.43;;
8058;SDS011;4072;42.668;23.396;2023-03-31T15:29:01;3.40;;;1.77;;
8058;SDS011;4072;42.668;23.396;2023-03-31T15:31:31;3.50;;;2.13;;
8058;SDS011;4072;42.668;23.396;2023-03-31T15:34:11;2.43;;;1.67;;
8058;SDS011;4072;42.668;23.396;2023-03-31T15:36:39;2.77;;;2.17;;
8058;SDS011;4072;42.668;23.396;2023-03-31T15:39:10;2.33;;;2.07;;
8058;SDS011;4072;42.668;23.396;2023-03-31T15:41:40;3.57;;;2.00;;
8058;SDS011;4072;42.668;23.396;2023-03-31T15:44:26;2.77;;;1.40;;
8058;SDS011;4072;42.668;23.396;2023-03-31T15:46:57;4.13;;;1.93;;
8058;SDS011;4072;42.668;23.396;2023-03-31T15:49:27;6.40;;;1.93;;
8058;SDS011;4072;42.668;23.396;2023-03-31T15:51:57;5.27;;;2.23;;
8058;SDS011;4072;42.668;23.396;2023-03-31T15:54:32;3.57;;;1.67;;